createdAt,value
2022-11-25T00:01:56.217Z,100725.88
2022-11-25T00:04:25.009Z,100728.91
2022-11-25T00:06:54.378Z,100723.88
2022-11-25T00:09:22.968Z,100726.91
2022-11-25T00:11:51.654Z,100723.19
2022-11-25T00:14:23.955Z,100712.16
2022-11-25T00:16:55.033Z,100716.84
2022-11-25T00:19:23.782Z,100713.16
2022-11-25T00:21:51.924Z,100708.63
2022-11-25T00:24:21.442Z,100712.66
2022-11-25T00:26:49.997Z,100703.78
2022-11-25T00:29:18.666Z,100715.50
2022-11-25T00:31:47.060Z,100710.63
2022-11-25T00:34:20.009Z,100712.81
2022-11-25T00:36:49.226Z,100704.78
2022-11-25T00:39:18.828Z,100703.47
2022-11-25T00:42:08.526Z,100697.09
2022-11-25T00:44:40.890Z,100696.09
2022-11-25T00:47:10.377Z,100695.06
2022-11-25T00:49:41.220Z,100701.44
2022-11-25T00:52:12.007Z,100700.44
2022-11-25T00:54:41.541Z,100706.13
2022-11-25T00:57:12.374Z,100707.13
2022-11-25T00:59:41.715Z,100700.78
2022-11-25T01:02:12.358Z,100704.28
2022-11-25T01:04:41.024Z,100691.38
2022-11-25T01:07:10.174Z,100693.56
2022-11-25T01:09:39.854Z,100699.44
2022-11-25T01:12:11.009Z,100688.88
2022-11-25T01:14:39.439Z,100675.31
2022-11-25T01:17:09.998Z,100671.63
2022-11-25T01:19:40.652Z,100666.63
2022-11-25T01:22:10.210Z,100678.00
2022-11-25T01:24:39.848Z,100680.00
2022-11-25T01:27:08.461Z,100696.91
2022-11-25T01:29:37.102Z,100706.13
2022-11-25T01:32:06.501Z,100701.41
2022-11-25T01:34:35.411Z,100701.41
2022-11-25T01:37:05.810Z,100705.13
2022-11-25T01:39:35.566Z,100715.84
2022-11-25T01:42:04.091Z,100709.97
2022-11-25T01:44:33.332Z,100702.13
2022-11-25T01:47:23.667Z,100700.91
2022-11-25T01:50:04.980Z,100703.41
2022-11-25T01:52:39.461Z,100703.09
2022-11-25T01:55:40.603Z,100702.25
2022-11-25T01:58:18.490Z,100705.09
2022-11-25T02:00:51.659Z,100711.44
2022-11-25T02:03:25.198Z,100708.94
2022-11-25T02:06:03.128Z,100705.75
2022-11-25T02:08:31.398Z,100702.25
2022-11-25T02:11:02.259Z,100690.50
2022-11-25T02:13:30.700Z,100693.34
2022-11-25T02:16:00.272Z,100689.31
2022-11-25T02:18:28.919Z,100687.31
2022-11-25T02:20:57.127Z,100687.00
2022-11-25T02:23:43.838Z,100700.22
2022-11-25T02:26:14.981Z,100695.03
2022-11-25T02:28:44.053Z,100699.69
2022-11-25T02:31:12.108Z,100703.19
2022-11-25T02:33:41.036Z,100710.72
2022-11-25T02:36:15.214Z,100708.69
2022-11-25T02:38:49.694Z,100706.38
2022-11-25T02:41:37.304Z,100705.22
2022-11-25T02:44:06.987Z,100711.22
2022-11-25T02:46:35.715Z,100711.06
2022-11-25T02:49:09.221Z,100709.38
2022-11-25T02:51:41.891Z,100710.78
2022-11-25T02:54:12.343Z,100708.72
2022-11-25T02:56:43.431Z,100706.38
2022-11-25T02:59:13.282Z,100705.56
2022-11-25T03:01:41.025Z,100705.69
2022-11-25T03:04:10.567Z,100700.34
2022-11-25T03:06:39.567Z,100702.53
2022-11-25T03:14:01.167Z,100686.56
2022-11-25T03:16:30.039Z,100692.22
2022-11-25T03:18:58.715Z,100700.66
2022-11-25T03:21:27.055Z,100700.25
2022-11-25T03:23:55.695Z,100700.94
2022-11-25T03:26:27.089Z,100710.72
2022-11-25T03:28:58.340Z,100714.03
2022-11-25T03:31:27.100Z,100710.66
2022-11-25T03:33:56.393Z,100715.91
2022-11-25T03:36:25.048Z,100711.88
2022-11-25T03:38:53.881Z,100710.41
2022-11-25T03:41:23.018Z,100707.84
2022-11-25T03:43:51.920Z,100707.38
2022-11-25T03:46:23.305Z,100715.44
2022-11-25T03:48:51.023Z,100716.72
2022-11-25T03:51:20.006Z,100708.03
2022-11-25T03:53:48.039Z,100699.84
2022-11-25T03:56:16.626Z,100699.84
2022-11-25T03:58:45.118Z,100694.81
2022-11-25T04:01:14.059Z,100699.38
2022-11-25T04:03:43.068Z,100702.34
2022-11-25T04:06:12.683Z,100699.00
2022-11-25T04:08:41.049Z,100696.59
2022-11-25T04:11:10.591Z,100703.63
2022-11-25T04:13:39.151Z,100694.31
2022-11-25T04:16:07.090Z,100686.38
2022-11-25T04:18:37.152Z,100696.09
2022-11-25T04:21:05.230Z,100700.25
2022-11-25T04:23:33.991Z,100705.91
2022-11-25T04:26:02.371Z,100699.41
2022-11-25T04:28:32.262Z,100710.34
2022-11-25T04:31:05.726Z,100721.94
2022-11-25T04:33:37.086Z,100730.97
2022-11-25T04:36:05.543Z,100732.13
2022-11-25T04:38:35.022Z,100734.66
2022-11-25T04:41:02.988Z,100737.63
2022-11-25T04:43:32.233Z,100741.28
2022-11-25T04:46:16.363Z,100739.69
2022-11-25T04:48:45.484Z,100738.19
2022-11-25T04:51:14.160Z,100731.06
2022-11-25T04:53:44.172Z,100738.41
2022-11-25T04:56:21.784Z,100743.44
2022-11-25T04:59:09.482Z,100738.63
2022-11-25T05:01:38.251Z,100744.28
2022-11-25T05:04:07.432Z,100745.19
2022-11-25T05:06:37.032Z,100740.06
2022-11-25T05:09:06.879Z,100742.94
2022-11-25T05:11:34.661Z,100743.28
2022-11-25T05:14:03.001Z,100746.94
2022-11-25T05:16:31.920Z,100755.66
2022-11-25T05:19:01.151Z,100765.84
2022-11-25T05:21:30.054Z,100766.38
2022-11-25T05:23:59.348Z,100771.84
2022-11-25T05:26:27.006Z,100772.00
2022-11-25T05:28:55.681Z,100779.88
2022-11-25T05:31:24.741Z,100778.28
2022-11-25T05:33:53.033Z,100780.59
2022-11-25T05:36:22.215Z,100791.72
2022-11-25T05:38:50.920Z,100797.81
2022-11-25T05:41:19.110Z,100796.69
2022-11-25T05:43:48.363Z,100806.41
2022-11-25T05:46:16.213Z,100803.16
2022-11-25T05:48:45.642Z,100793.97
2022-11-25T05:51:14.092Z,100800.00
2022-11-25T05:53:43.013Z,100801.72
2022-11-25T05:56:12.823Z,100803.88
2022-11-25T05:58:41.988Z,100808.69
2022-11-25T06:01:12.169Z,100803.72
2022-11-25T06:03:42.170Z,100807.38
2022-11-25T06:06:11.525Z,100805.44
2022-11-25T06:08:40.612Z,100814.81
2022-11-25T06:11:12.778Z,100819.38
2022-11-25T06:13:44.253Z,100819.16
2022-11-25T06:16:19.932Z,100812.13
2022-11-25T06:18:51.127Z,100822.03
2022-11-25T06:21:23.053Z,100832.09
2022-11-25T06:23:51.015Z,100823.13
2022-11-25T06:26:22.322Z,100825.28
2022-11-25T06:28:55.460Z,100833.53
2022-11-25T06:31:27.790Z,100825.13
2022-11-25T06:33:58.158Z,100823.63
2022-11-25T06:36:30.618Z,100823.91
2022-11-25T06:38:59.105Z,100829.44
2022-11-25T06:41:31.713Z,100818.34
2022-11-25T06:44:00.856Z,100826.94
2022-11-25T06:46:29.169Z,100824.94
2022-11-25T06:49:00.579Z,100823.69
2022-11-25T06:51:29.314Z,100827.97
2022-11-25T06:53:58.324Z,100826.53
2022-11-25T06:56:28.181Z,100818.75
2022-11-25T06:58:57.526Z,100830.53
2022-11-25T07:01:39.038Z,100824.94
2022-11-25T07:04:11.014Z,100811.72
2022-11-25T07:07:01.435Z,100819.66
2022-11-25T07:09:41.121Z,100824.59
2022-11-25T07:12:09.251Z,100839.66
2022-11-25T07:14:39.150Z,100836.19
2022-11-25T07:17:12.258Z,100836.63
2022-11-25T07:19:45.855Z,100831.06
2022-11-25T07:22:15.611Z,100833.25
2022-11-25T07:24:46.344Z,100833.97
2022-11-25T07:27:16.565Z,100829.00
2022-11-25T07:30:54.419Z,100825.59
2022-11-25T07:32:57.270Z,100826.31
2022-11-25T07:35:26.834Z,100835.75
2022-11-25T07:37:58.018Z,100841.09
2022-11-25T07:40:30.077Z,100837.75
2022-11-25T07:43:03.690Z,100844.91
2022-11-25T07:45:42.078Z,100846.84
2022-11-25T07:48:16.683Z,100852.59
2022-11-25T07:50:47.232Z,100866.44
2022-11-25T07:53:18.395Z,100864.44
2022-11-25T07:55:49.360Z,100868.88
2022-11-25T07:58:19.595Z,100866.22
2022-11-25T08:00:49.280Z,100864.31
2022-11-25T08:03:18.350Z,100864.31
2022-11-25T08:05:50.297Z,100869.03
2022-11-25T08:08:20.054Z,100860.84
2022-11-25T08:10:52.999Z,100865.28
2022-11-25T08:13:24.639Z,100869.28
2022-11-25T08:15:54.698Z,100869.94
2022-11-25T08:18:23.583Z,100880.81
2022-11-25T08:20:52.981Z,100886.03
2022-11-25T08:23:23.925Z,100886.38
2022-11-25T08:25:54.497Z,100887.00
2022-11-25T08:28:26.551Z,100891.63
2022-11-25T08:31:06.237Z,100895.56
2022-11-25T08:33:35.848Z,100900.50
2022-11-25T08:36:06.660Z,100890.56
2022-11-25T08:38:38.034Z,100889.72
2022-11-25T08:41:15.465Z,100897.41
2022-11-25T08:43:44.541Z,100892.63
2022-11-25T08:46:23.752Z,100891.06
2022-11-25T08:48:52.901Z,100893.56
2022-11-25T08:51:29.218Z,100878.22
2022-11-25T08:54:01.398Z,100887.44
2022-11-25T08:56:41.117Z,100889.22
2022-11-25T08:59:10.590Z,100886.69
2022-11-25T09:01:41.536Z,100890.25
2022-11-25T09:04:12.092Z,100886.25
2022-11-25T09:06:44.348Z,100887.28
2022-11-25T09:09:17.956Z,100890.69
2022-11-25T09:11:48.680Z,100883.41
2022-11-25T09:14:18.855Z,100889.28
2022-11-25T09:16:49.734Z,100890.13
2022-11-25T09:19:23.064Z,100887.69
2022-11-25T09:21:55.110Z,100885.31
2022-11-25T09:24:27.067Z,100875.41
2022-11-25T09:26:57.439Z,100880.94
2022-11-25T09:29:29.214Z,100873.06
2022-11-25T09:32:00.415Z,100873.50
2022-11-25T09:34:31.580Z,100868.97
2022-11-25T09:37:04.305Z,100879.00
2022-11-25T09:39:37.195Z,100875.31
2022-11-25T09:42:58.769Z,100868.81
2022-11-25T09:46:11.493Z,100871.50
2022-11-25T09:49:13.568Z,100866.00
2022-11-25T09:51:57.748Z,100865.00
2022-11-25T09:54:36.112Z,100866.00
2022-11-25T09:57:51.962Z,100861.09
2022-11-25T10:00:47.778Z,100860.47
2022-11-25T10:03:24.623Z,100856.69
2022-11-25T10:06:05.486Z,100854.00
2022-11-25T10:08:42.242Z,100857.81
2022-11-25T10:11:25.240Z,100859.03
2022-11-25T10:14:14.525Z,100849.56
2022-11-25T10:16:51.410Z,100853.16
2022-11-25T10:19:20.298Z,100850.00
2022-11-25T10:21:53.034Z,100859.66
2022-11-25T10:24:23.793Z,100856.59
2022-11-25T10:27:08.913Z,100856.84
2022-11-25T10:29:38.961Z,100853.91
2022-11-25T10:32:41.333Z,100855.59
2022-11-25T10:35:24.788Z,100855.41
2022-11-25T10:37:56.828Z,100847.00
2022-11-25T10:40:26.199Z,100844.47
2022-11-25T10:42:56.290Z,100838.59
2022-11-25T10:45:39.654Z,100841.13
2022-11-25T10:48:55.822Z,100839.09
2022-11-25T10:51:51.870Z,100842.28
2022-11-25T10:54:29.490Z,100837.66
2022-11-25T10:57:05.298Z,100836.19
2022-11-25T10:59:40.627Z,100838.47
2022-11-25T11:02:31.442Z,100845.69
2022-11-25T11:05:15.159Z,100846.66
2022-11-25T11:07:47.591Z,100850.38
2022-11-25T11:10:24.183Z,100849.00
2022-11-25T11:13:03.156Z,100854.59
2022-11-25T11:15:44.264Z,100848.19
2022-11-25T11:18:23.527Z,100852.22
2022-11-25T11:21:00.674Z,100850.75
2022-11-25T11:23:49.619Z,100858.28
2022-11-25T11:26:26.641Z,100859.75
2022-11-25T11:29:15.499Z,100850.09
2022-11-25T11:32:08.304Z,100852.38
2022-11-25T11:34:54.590Z,100853.69
2022-11-25T11:37:48.150Z,100843.03
2022-11-25T11:40:59.754Z,100849.38
2022-11-25T11:43:39.899Z,100853.72
2022-11-25T11:46:54.093Z,100853.91
2022-11-25T11:49:56.627Z,100855.44
2022-11-25T11:53:08.263Z,100858.78
2022-11-25T11:59:29.005Z,100864.00
2022-11-25T12:02:28.916Z,100864.00
2022-11-25T12:05:17.801Z,100864.78
2022-11-25T12:08:50.850Z,100861.00
2022-11-25T12:11:25.899Z,100864.66
2022-11-25T12:14:12.235Z,100866.84
2022-11-25T12:17:18.967Z,100873.88
2022-11-25T12:20:04.404Z,100868.84
2022-11-25T12:22:49.471Z,100864.78
2022-11-25T12:25:32.174Z,100874.41
2022-11-25T12:28:27.459Z,100864.66
2022-11-25T12:31:37.193Z,100860.66
2022-11-25T12:34:41.791Z,100864.59
2022-11-25T12:37:21.685Z,100857.56
2022-11-25T12:40:06.460Z,100857.13
2022-11-25T12:42:40.311Z,100855.44
2022-11-25T12:45:26.725Z,100847.25
2022-11-25T12:47:56.405Z,100849.38
2022-11-25T12:50:52.500Z,100848.72
2022-11-25T12:53:47.156Z,100859.47
2022-11-25T12:56:36.336Z,100847.00
2022-11-25T12:59:36.306Z,100852.72
2022-11-25T13:02:52.862Z,100856.41
2022-11-25T13:05:59.915Z,100858.19
2022-11-25T13:08:50.535Z,100854.00
2022-11-25T13:11:39.116Z,100865.22
2022-11-25T13:14:32.329Z,100860.72
2022-11-25T13:17:03.261Z,100858.06
2022-11-25T13:19:37.170Z,100856.41
2022-11-25T13:22:27.328Z,100853.69
2022-11-25T13:24:58.670Z,100856.72
2022-11-25T13:27:31.500Z,100862.41
2022-11-25T13:30:01.813Z,100865.44
2022-11-25T13:32:39.214Z,100878.84
2022-11-25T13:35:43.035Z,100872.13
2022-11-25T13:38:38.560Z,100878.50
2022-11-25T13:41:34.481Z,100885.91
2022-11-25T13:44:22.275Z,100881.75
2022-11-25T13:46:53.938Z,100883.22
2022-11-25T13:49:27.126Z,100879.56
2022-11-25T13:52:18.860Z,100888.59
2022-11-25T13:54:55.285Z,100891.25
2022-11-25T13:57:37.073Z,100894.41
2022-11-25T14:00:20.737Z,100892.22
2022-11-25T14:02:50.262Z,100896.91
2022-11-25T14:05:39.007Z,100904.63
2022-11-25T14:09:04.762Z,100905.72
2022-11-25T14:11:39.845Z,100904.88
2022-11-25T14:14:49.459Z,100911.63
2022-11-25T14:17:31.819Z,100914.44
2022-11-25T14:20:13.584Z,100909.22
2022-11-25T14:23:22.346Z,100926.97
2022-11-25T14:26:11.718Z,100929.66
2022-11-25T14:29:03.435Z,100922.47
2022-11-25T14:31:38.508Z,100927.81
2022-11-25T14:34:32.213Z,100922.63
2022-11-25T14:37:37.759Z,100924.97
2022-11-25T14:40:30.788Z,100923.44
2022-11-25T14:43:07.328Z,100930.19
2022-11-25T14:45:51.791Z,100927.56
2022-11-25T14:48:35.068Z,100927.09
2022-11-25T14:51:13.974Z,100925.56
2022-11-25T14:54:02.979Z,100923.94
2022-11-25T14:56:36.169Z,100929.28
2022-11-25T14:59:10.219Z,100932.09
2022-11-25T15:01:55.264Z,100932.63
2022-11-25T15:04:25.436Z,100926.53
2022-11-25T15:07:05.684Z,100925.19
2022-11-25T15:09:44.612Z,100928.41
2022-11-25T15:12:24.891Z,100925.88
2022-11-25T15:14:59.678Z,100926.28
2022-11-25T15:17:43.954Z,100920.31
2022-11-25T15:20:17.838Z,100918.47
2022-11-25T15:23:01.182Z,100926.44
2022-11-25T15:25:50.627Z,100928.03
2022-11-25T15:28:19.712Z,100926.59
2022-11-25T15:30:59.172Z,100925.44
2022-11-25T15:33:38.531Z,100921.91
2022-11-25T15:36:20.682Z,100925.94
2022-11-25T15:38:50.269Z,100918.53
2022-11-25T15:41:39.551Z,100912.19
2022-11-25T15:44:38.847Z,100918.25
2022-11-25T15:47:33.256Z,100915.44
2022-11-25T15:50:28.895Z,100917.63
2022-11-25T15:53:10.000Z,100913.22
2022-11-25T15:55:41.661Z,100920.31
2022-11-25T15:58:19.827Z,100916.28
2022-11-25T16:01:17.458Z,100913.66
2022-11-25T16:03:50.033Z,100925.75
2022-11-25T16:06:30.201Z,100921.72
2022-11-25T16:09:07.762Z,100930.38
2022-11-25T16:11:45.588Z,100936.00
2022-11-25T16:14:29.337Z,100939.00
2022-11-25T16:17:05.765Z,100937.38
2022-11-25T16:19:40.892Z,100940.53
2022-11-25T16:22:19.602Z,100945.41
2022-11-25T16:25:03.140Z,100953.44
2022-11-25T16:27:37.895Z,100957.66
2022-11-25T16:30:19.551Z,100958.19
2022-11-25T16:32:48.546Z,100951.91
2022-11-25T16:35:25.537Z,100952.59
2022-11-25T16:37:58.331Z,100953.44
2022-11-25T16:40:28.090Z,100950.19
2022-11-25T16:42:57.089Z,100944.41
2022-11-25T16:45:27.853Z,100944.78
2022-11-25T16:47:56.828Z,100952.28
2022-11-25T16:50:25.110Z,100939.78
2022-11-25T16:52:53.955Z,100952.81
2022-11-25T16:55:22.963Z,100952.47
2022-11-25T16:57:54.520Z,100951.91
2022-11-25T17:00:24.185Z,100941.69
2022-11-25T17:02:53.696Z,100940.84
2022-11-25T17:05:27.149Z,100933.72
2022-11-25T17:07:56.619Z,100932.34
2022-11-25T17:10:27.177Z,100934.00
2022-11-25T17:12:56.843Z,100937.75
2022-11-25T17:15:36.820Z,100936.69
2022-11-25T17:18:08.378Z,100937.53
2022-11-25T17:20:37.034Z,100929.78
2022-11-25T17:23:12.588Z,100940.69
2022-11-25T17:25:48.005Z,100930.25
2022-11-25T17:28:24.213Z,100941.44
2022-11-25T17:30:52.173Z,100928.72
2022-11-25T17:33:20.978Z,100933.41
2022-11-25T17:35:50.198Z,100934.72
2022-11-25T17:38:28.065Z,100935.38
2022-11-25T17:40:56.026Z,100941.44
2022-11-25T17:43:24.818Z,100935.38
2022-11-25T17:45:53.129Z,100944.97
2022-11-25T17:48:24.602Z,100950.19
2022-11-25T17:50:53.953Z,100948.66
2022-11-25T17:53:23.101Z,100945.81
2022-11-25T17:55:54.094Z,100951.84
2022-11-25T17:58:24.102Z,100956.84
2022-11-25T18:00:52.032Z,100956.28
2022-11-25T18:03:20.756Z,100973.59
2022-11-25T18:05:50.025Z,100968.78
2022-11-25T18:08:25.959Z,100975.09
2022-11-25T18:11:12.990Z,100974.44
2022-11-25T18:13:54.032Z,100973.50
2022-11-25T18:16:37.127Z,100963.75
2022-11-25T18:19:06.058Z,100977.41
2022-11-25T18:21:36.592Z,100984.06
2022-11-25T18:24:05.891Z,100979.59
2022-11-25T18:26:49.164Z,100984.31
2022-11-25T18:29:24.384Z,100989.69
2022-11-25T18:31:56.080Z,100983.63
2022-11-25T18:34:25.490Z,100986.41
2022-11-25T18:36:54.831Z,100987.38
2022-11-25T18:39:24.201Z,100995.78
2022-11-25T18:41:58.281Z,100995.03
2022-11-25T18:44:29.234Z,100998.31
2022-11-25T18:46:57.990Z,100997.72
2022-11-25T18:49:26.110Z,100999.84
2022-11-25T18:51:55.047Z,101007.97
2022-11-25T18:54:37.864Z,101004.66
2022-11-25T18:57:21.705Z,101006.16
2022-11-25T19:00:10.669Z,101006.19
2022-11-25T19:02:42.973Z,101012.53
2022-11-25T19:05:32.720Z,101017.06
2022-11-25T19:08:02.173Z,101018.53
2022-11-25T19:10:35.415Z,101020.53
2022-11-25T19:13:12.184Z,101015.72
2022-11-25T19:15:42.687Z,101016.38
2022-11-25T19:18:16.885Z,101027.91
2022-11-25T19:20:44.940Z,101019.28
2022-11-25T19:23:31.177Z,101022.91
2022-11-25T19:26:11.598Z,101031.03
2022-11-25T19:28:41.515Z,101031.03
2022-11-25T19:31:11.663Z,101037.41
2022-11-25T19:33:43.788Z,101026.22
2022-11-25T19:36:29.676Z,101020.66
2022-11-25T19:38:58.578Z,101035.66
2022-11-25T19:41:27.547Z,101032.38
2022-11-25T19:43:56.247Z,101037.03
2022-11-25T19:46:46.271Z,101040.75
2022-11-25T19:49:20.540Z,101042.22
2022-11-25T19:51:49.704Z,101050.09
2022-11-25T19:54:19.772Z,101038.06
2022-11-25T19:56:49.833Z,101051.63
2022-11-25T19:59:17.971Z,101046.06
2022-11-25T20:01:47.328Z,101041.44
2022-11-25T20:04:25.236Z,101042.91
2022-11-25T20:06:53.099Z,101034.88
2022-11-25T20:09:21.997Z,101050.16
2022-11-25T20:11:54.595Z,101048.28
2022-11-25T20:14:23.116Z,101055.50
2022-11-25T20:16:51.893Z,101053.00
2022-11-25T20:19:20.129Z,101058.88
2022-11-25T20:21:49.642Z,101058.56
2022-11-25T20:24:20.536Z,101058.56
2022-11-25T20:26:50.559Z,101063.63
2022-11-25T20:29:24.706Z,101065.31
2022-11-25T20:31:58.493Z,101059.94
2022-11-25T20:34:28.635Z,101057.94
2022-11-25T20:36:57.105Z,101070.66
2022-11-25T20:39:27.009Z,101077.09
2022-11-25T20:41:57.985Z,101069.91
2022-11-25T20:44:28.783Z,101081.25
2022-11-25T20:46:57.975Z,101080.75
2022-11-25T20:49:29.879Z,101080.59
2022-11-25T20:52:02.115Z,101089.34
2022-11-25T20:54:33.122Z,101088.88
2022-11-25T20:57:03.064Z,101090.56
2022-11-25T20:59:31.290Z,101099.84
2022-11-25T21:02:02.629Z,101099.66
2022-11-25T21:04:31.549Z,101094.84
2022-11-25T21:07:00.108Z,101105.41
2022-11-25T21:09:33.458Z,101098.53
2022-11-25T21:12:05.139Z,101092.03
2022-11-25T21:14:32.750Z,101098.00
2022-11-25T21:17:02.044Z,101097.16
2022-11-25T21:19:30.873Z,101103.56
2022-11-25T21:21:59.064Z,101115.56
2022-11-25T21:24:40.501Z,101121.09
2022-11-25T21:27:15.451Z,101120.56
2022-11-25T21:29:45.902Z,101112.91
2022-11-25T21:32:26.690Z,101114.53
2022-11-25T21:34:57.011Z,101112.41
2022-11-25T21:37:40.821Z,101120.91
2022-11-25T21:40:45.089Z,101116.69
2022-11-25T21:43:24.368Z,101117.19
2022-11-25T21:46:06.139Z,101122.56
2022-11-25T21:48:36.040Z,101116.19
2022-11-25T21:51:04.127Z,101118.09
2022-11-25T21:53:37.109Z,101124.78
2022-11-25T21:56:26.732Z,101123.78
2022-11-25T21:58:59.454Z,101122.19
2022-11-25T22:01:28.940Z,101119.13
2022-11-25T22:03:57.469Z,101122.78
2022-11-25T22:06:29.171Z,101129.97
2022-11-25T22:08:58.151Z,101127.91
2022-11-25T22:11:41.451Z,101125.25
2022-11-25T22:14:24.334Z,101130.59
2022-11-25T22:16:53.898Z,101126.78
2022-11-25T22:19:25.414Z,101137.22
2022-11-25T22:21:55.674Z,101133.78
2022-11-25T22:24:24.424Z,101137.81
2022-11-25T22:26:57.865Z,101140.41
2022-11-25T22:29:34.776Z,101136.47
2022-11-25T22:32:07.116Z,101144.41
2022-11-25T22:34:39.092Z,101153.13
2022-11-25T22:37:24.074Z,101147.53
2022-11-25T22:39:53.369Z,101137.16
2022-11-25T22:42:31.272Z,101147.25
2022-11-25T22:45:02.751Z,101146.41
2022-11-25T22:47:39.481Z,101137.94
2022-11-25T22:50:32.514Z,101139.06
2022-11-25T22:53:01.900Z,101138.72
2022-11-25T22:55:32.882Z,101135.47
2022-11-25T22:58:01.992Z,101139.56
2022-11-25T23:00:36.071Z,101137.53
2022-11-25T23:03:07.210Z,101142.88
2022-11-25T23:05:40.583Z,101141.16
2022-11-25T23:08:27.207Z,101146.75
2022-11-25T23:10:56.934Z,101144.47
2022-11-25T23:13:26.558Z,101145.34
2022-11-25T23:15:58.473Z,101144.63
2022-11-25T23:18:37.774Z,101141.41
2022-11-25T23:21:11.485Z,101142.81
2022-11-25T23:23:43.225Z,101141.13
2022-11-25T23:28:58.155Z,101145.84
2022-11-25T23:31:26.154Z,101145.81
2022-11-25T23:33:55.881Z,101152.09
2022-11-25T23:36:45.123Z,101144.94
2022-11-25T23:39:23.904Z,101150.72
2022-11-25T23:41:52.946Z,101148.72
2022-11-25T23:44:31.949Z,101154.63
2022-11-25T23:47:06.741Z,101152.50
2022-11-25T23:49:48.564Z,101160.03
2022-11-25T23:52:21.620Z,101164.00
2022-11-25T23:54:51.749Z,101163.00
2022-11-25T23:57:23.420Z,101173.78
2022-11-25T23:59:52.858Z,101175.81
